Time;durP1;ratioP1;P1;durP2;ratioP2;P2;SDS_P1;SDS_P2;PMS_P1;PMS_P2;Temp;Humidity;BMP_temperature;BMP_pressure;BME280_temperature;BME280_humidity;BME280_pressure;Samples;Min_cycle;Max_cycle;Signal;HPM_P1;HPM_P2
2021/04/14 00:01:12;;;;;;;8.37;6.10;;;0.50;47.40;;;;;;5045956;28;39347;-88
2021/04/14 00:03:45;;;;;;;6.90;5.70;;;0.50;47.50;;;;;;5037276;28;37252;-88
2021/04/14 00:06:12;;;;;;;11.93;6.50;;;0.40;47.70;;;;;;5038360;28;38647;-86
2021/04/14 00:08:41;;;;;;;8.03;6.30;;;0.40;47.70;;;;;;5059170;28;40913;-86
2021/04/14 00:11:13;;;;;;;8.17;6.20;;;0.40;47.80;;;;;;5058017;28;39331;-85
2021/04/14 00:13:44;;;;;;;8.30;6.77;;;0.30;47.90;;;;;;5033761;28;36633;-85
2021/04/14 00:16:15;;;;;;;6.17;5.03;;;0.30;47.80;;;;;;5049914;28;37464;-86
2021/04/14 00:18:42;;;;;;;10.20;5.90;;;0.30;47.70;;;;;;5049918;28;38703;-86
2021/04/14 00:21:15;;;;;;;10.30;6.37;;;0.30;47.90;;;;;;5051750;28;38932;-87
2021/04/14 00:23:45;;;;;;;8.70;6.83;;;0.20;47.90;;;;;;5051496;28;38037;-86
2021/04/14 00:26:14;;;;;;;7.67;6.83;;;0.20;48.00;;;;;;5046718;28;38429;-87
2021/04/14 00:28:41;;;;;;;9.70;7.33;;;0.20;48.10;;;;;;5050374;28;40052;-88
2021/04/14 00:31:14;;;;;;;9.43;7.43;;;0.10;48.20;;;;;;5032395;28;38391;-88
2021/04/14 00:33:45;;;;;;;8.47;6.73;;;0.00;48.30;;;;;;5050586;28;37776;-87
2021/04/14 00:36:14;;;;;;;9.13;7.30;;;-0.10;48.40;;;;;;5050629;28;35906;-86
2021/04/14 00:38:41;;;;;;;9.50;6.60;;;-0.10;48.60;;;;;;5049398;28;40651;-84
2021/04/14 00:41:12;;;;;;;9.00;6.77;;;-0.20;48.70;;;;;;5054003;28;39520;-85
2021/04/14 00:43:40;;;;;;;8.73;6.50;;;-0.20;48.80;;;;;;5048718;28;37494;-84
2021/04/14 00:46:07;;;;;;;8.40;6.67;;;-0.20;48.80;;;;;;5049597;28;37503;-84
2021/04/14 00:48:38;;;;;;;9.93;6.47;;;-0.20;48.80;;;;;;5050922;28;39224;-84
2021/04/14 00:51:10;;;;;;;8.90;6.27;;;-0.20;48.90;;;;;;5066707;28;37810;-85
2021/04/14 00:53:41;;;;;;;8.40;6.10;;;-0.20;48.80;;;;;;5032497;28;36856;-85
2021/04/14 00:56:08;;;;;;;10.60;7.50;;;-0.20;48.90;;;;;;5052414;28;36968;-85
2021/04/14 00:58:42;;;;;;;10.60;7.50;;;-0.20;49.00;;;;;;5052302;28;40533;-85
2021/04/14 01:01:09;;;;;;;8.70;7.23;;;-0.20;49.10;;;;;;5040756;28;37481;-84
2021/04/14 01:03:38;;;;;;;8.37;6.70;;;-0.20;49.10;;;;;;5053164;28;37927;-85
2021/04/14 01:06:09;;;;;;;7.23;6.33;;;-0.20;49.00;;;;;;5050492;28;37366;-84
2021/04/14 01:08:37;;;;;;;7.83;6.80;;;-0.30;49.10;;;;;;5042532;28;39337;-84
2021/04/14 01:11:05;;;;;;;7.80;7.00;;;-0.30;49.30;;;;;;5050648;28;38765;-85
2021/04/14 01:13:33;;;;;;;8.07;7.10;;;-0.30;49.20;;;;;;5067340;28;37137;-85
2021/04/14 01:16:03;;;;;;;7.23;6.47;;;-0.20;49.30;;;;;;5051474;28;36891;-85
2021/04/14 01:18:36;;;;;;;8.13;6.80;;;-0.20;49.30;;;;;;5052643;28;39456;-85
2021/04/14 01:21:07;;;;;;;10.67;7.37;;;-0.30;49.10;;;;;;5048762;28;39309;-85
2021/04/14 01:23:36;;;;;;;8.20;7.10;;;-0.30;49.40;;;;;;5049149;28;37777;-85
2021/04/14 01:26:04;;;;;;;8.87;6.67;;;-0.30;49.50;;;;;;5051243;28;37389;-85
2021/04/14 01:28:34;;;;;;;8.27;7.10;;;-0.40;49.40;;;;;;5051051;28;37958;-85
2021/04/14 01:31:08;;;;;;;9.83;7.70;;;-0.40;49.60;;;;;;5050553;28;39275;-85
2021/04/14 01:33:35;;;;;;;9.33;7.50;;;-0.50;49.80;;;;;;5046583;28;37629;-84
2021/04/14 01:36:05;;;;;;;8.60;6.40;;;-0.40;49.70;;;;;;5039446;28;36041;-84
2021/04/14 01:38:32;;;;;;;9.43;7.10;;;-0.50;49.60;;;;;;5049797;28;40829;-84
2021/04/14 01:41:02;;;;;;;9.57;7.97;;;-0.50;49.80;;;;;;5052504;28;38227;-84
2021/04/14 01:43:29;;;;;;;9.53;6.80;;;-0.50;49.80;;;;;;5051723;28;37586;-85
2021/04/14 01:46:01;;;;;;;8.37;6.80;;;-0.60;49.70;;;;;;5054739;28;38031;-85
2021/04/14 01:48:28;;;;;;;8.33;6.93;;;-0.60;49.70;;;;;;5052198;28;39820;-85
2021/04/14 01:50:57;;;;;;;9.17;6.93;;;-0.60;49.80;;;;;;5049994;28;37701;-85
2021/04/14 01:53:24;;;;;;;8.30;6.47;;;-0.60;50.10;;;;;;5049782;28;38061;-87
2021/04/14 01:55:52;;;;;;;8.50;6.47;;;-0.70;50.10;;;;;;5052715;28;37291;-85
2021/04/14 01:58:23;;;;;;;8.03;6.80;;;-0.60;50.30;;;;;;5050370;28;39379;-85
2021/04/14 02:00:54;;;;;;;11.87;7.13;;;-0.70;50.10;;;;;;5047608;28;39667;-85
2021/04/14 02:03:25;;;;;;;7.13;6.20;;;-0.70;50.00;;;;;;5050488;28;39018;-85
2021/04/14 02:05:52;;;;;;;8.43;7.13;;;-0.70;50.00;;;;;;5048895;28;37393;-84
2021/04/14 02:08:19;;;;;;;10.10;7.50;;;-0.70;50.00;;;;;;5048370;28;40767;-84
2021/04/14 02:10:47;;;;;;;9.17;6.53;;;-0.70;50.10;;;;;;5053334;28;39338;-85
2021/04/14 02:13:16;;;;;;;8.03;6.90;;;-0.60;50.20;;;;;;5051865;28;38215;-85
2021/04/14 02:15:46;;;;;;;8.57;6.47;;;-0.60;49.80;;;;;;5053867;28;37937;-85
2021/04/14 02:18:13;;;;;;;8.17;6.67;;;-0.60;50.40;;;;;;5056396;28;38723;-85
2021/04/14 02:20:44;;;;;;;8.77;6.47;;;-0.60;49.70;;;;;;5063398;28;39544;-84
2021/04/14 02:23:13;;;;;;;7.37;5.20;;;-0.60;50.00;;;;;;5062993;28;38630;-84
2021/04/14 02:25:41;;;;;;;6.93;5.77;;;-0.60;49.70;;;;;;5055002;28;38072;-85
2021/04/14 02:28:08;;;;;;;6.63;5.93;;;-0.60;49.70;;;;;;5050243;28;40257;-84
2021/04/14 02:30:35;;;;;;;7.60;6.40;;;-0.60;49.70;;;;;;5052650;28;39831;-85
2021/04/14 02:33:05;;;;;;;11.80;6.70;;;-0.70;49.70;;;;;;5052115;28;38535;-84
2021/04/14 02:35:33;;;;;;;8.20;6.43;;;-0.70;49.90;;;;;;5051043;28;37722;-84
2021/04/14 02:38:00;;;;;;;7.90;6.60;;;-0.80;49.90;;;;;;5050177;28;40443;-85
2021/04/14 02:40:27;;;;;;;8.80;6.63;;;-0.80;49.90;;;;;;5052090;28;39145;-86
2021/04/14 02:42:54;;;;;;;9.60;7.30;;;-0.90;50.00;;;;;;5051094;28;37979;-85
2021/04/14 02:45:26;;;;;;;7.33;6.17;;;-1.00;50.30;;;;;;5050977;28;38474;-84
2021/04/14 02:47:53;;;;;;;8.50;6.47;;;-1.00;50.50;;;;;;5049964;28;39473;-84
2021/04/14 02:50:22;;;;;;;9.33;7.27;;;-1.10;50.60;;;;;;5050574;28;39191;-84
2021/04/14 02:52:49;;;;;;;13.03;6.60;;;-1.10;50.80;;;;;;5051005;28;38931;-84
2021/04/14 02:55:17;;;;;;;9.90;7.30;;;-1.10;50.80;;;;;;5055291;28;37272;-84
2021/04/14 02:57:44;;;;;;;10.03;6.20;;;-1.10;50.90;;;;;;5052314;28;40881;-85
2021/04/14 03:00:13;;;;;;;9.33;6.60;;;-1.10;50.80;;;;;;5054603;28;39900;-87
2021/04/14 03:02:40;;;;;;;7.37;6.40;;;-1.20;50.80;;;;;;5057225;28;38346;-84
2021/04/14 03:05:09;;;;;;;7.43;6.07;;;-1.30;51.00;;;;;;5056913;28;37146;-86
2021/04/14 03:07:38;;;;;;;8.67;6.20;;;-1.30;51.00;;;;;;5047593;28;40290;-83
2021/04/14 03:10:06;;;;;;;7.33;5.67;;;-1.30;51.10;;;;;;5047570;28;38907;-83
2021/04/14 03:12:34;;;;;;;9.40;6.90;;;-1.30;51.20;;;;;;5054609;28;39174;-87
2021/04/14 03:15:01;;;;;;;6.93;6.23;;;-1.30;51.20;;;;;;5056091;28;36856;-85
2021/04/14 03:17:28;;;;;;;7.27;5.90;;;-1.30;51.20;;;;;;5055128;28;40031;-85
2021/04/14 03:19:55;;;;;;;6.07;5.47;;;-1.40;51.10;;;;;;5052639;28;37808;-83
2021/04/14 03:22:22;;;;;;;8.87;5.73;;;-1.40;51.30;;;;;;5054665;28;38246;-83
2021/04/14 03:24:50;;;;;;;9.60;7.00;;;-1.40;51.40;;;;;;5036542;28;37322;-84
2021/04/14 03:27:17;;;;;;;8.27;6.10;;;-1.40;51.50;;;;;;5051986;28;39795;-84
2021/04/14 03:29:44;;;;;;;8.47;5.90;;;-1.30;51.70;;;;;;5054125;28;39988;-83
2021/04/14 03:32:11;;;;;;;7.00;6.03;;;-1.20;51.50;;;;;;5064394;28;36879;-83
2021/04/14 03:34:38;;;;;;;7.80;6.27;;;-1.20;51.30;;;;;;5055299;28;37122;-84
2021/04/14 03:37:06;;;;;;;10.20;6.50;;;-1.20;51.20;;;;;;5054569;28;39749;-84
2021/04/14 03:39:33;;;;;;;10.77;6.60;;;-1.20;51.20;;;;;;5038871;28;37818;-84
2021/04/14 03:42:02;;;;;;;8.43;6.60;;;-1.20;51.10;;;;;;5054582;28;38980;-85
2021/04/14 03:44:33;;;;;;;10.27;6.47;;;-1.20;51.20;;;;;;5054105;28;35660;-86
2021/04/14 03:47:01;;;;;;;7.10;6.20;;;-1.20;51.20;;;;;;5052747;28;39679;-84
2021/04/14 03:49:28;;;;;;;9.13;6.10;;;-1.20;51.20;;;;;;5055872;28;38954;-83
2021/04/14 03:51:55;;;;;;;7.97;6.10;;;-1.30;51.40;;;;;;5067548;28;37551;-84
2021/04/14 03:54:25;;;;;;;7.73;6.33;;;-1.30;51.60;;;;;;5074626;28;37543;-83
2021/04/14 03:56:52;;;;;;;10.87;7.00;;;-1.40;51.60;;;;;;5062923;28;41004;-85
2021/04/14 03:59:20;;;;;;;10.23;6.47;;;-1.30;51.50;;;;;;5052288;28;39213;-85
2021/04/14 04:01:47;;;;;;;9.03;6.80;;;-1.30;51.40;;;;;;5053129;28;38217;-85
2021/04/14 04:04:14;;;;;;;6.77;5.90;;;-1.40;51.50;;;;;;5050956;28;37126;-85
2021/04/14 04:06:41;;;;;;;8.63;6.53;;;-1.30;51.60;;;;;;5050836;28;40631;-84
2021/04/14 04:09:08;;;;;;;9.80;7.30;;;-1.30;51.60;;;;;;5036560;28;38667;-84
2021/04/14 04:11:35;;;;;;;7.40;6.47;;;-1.40;51.40;;;;;;5052348;28;38206;-85
2021/04/14 04:14:03;;;;;;;8.97;6.60;;;-1.30;51.70;;;;;;5050807;28;36083;-85
2021/04/14 04:16:31;;;;;;;7.60;6.30;;;-1.40;51.50;;;;;;5050919;28;39545;-84
2021/04/14 04:18:58;;;;;;;7.80;7.00;;;-1.40;51.50;;;;;;5050371;28;37587;-85
2021/04/14 04:21:25;;;;;;;9.10;7.27;;;-1.30;51.50;;;;;;5052501;28;37468;-85
2021/04/14 04:23:53;;;;;;;10.07;7.73;;;-1.30;51.40;;;;;;5049490;28;37133;-85
2021/04/14 04:26:21;;;;;;;11.47;7.40;;;-1.40;51.40;;;;;;5038635;28;39596;-85
2021/04/14 04:28:50;;;;;;;10.50;6.30;;;-1.40;51.50;;;;;;5051598;28;39023;-84
2021/04/14 04:31:19;;;;;;;9.10;7.10;;;-1.40;51.70;;;;;;5050813;28;39006;-84
2021/04/14 04:33:48;;;;;;;8.97;6.87;;;-1.50;52.30;;;;;;5051936;28;38014;-85
2021/04/14 04:36:17;;;;;;;9.43;7.03;;;-1.50;51.90;;;;;;5046315;28;40517;-84
2021/04/14 04:38:44;;;;;;;9.87;6.20;;;-1.50;51.60;;;;;;5033318;28;39122;-85
2021/04/14 04:41:11;;;;;;;10.13;6.70;;;-1.50;51.60;;;;;;5042019;28;37903;-84
2021/04/14 04:43:40;;;;;;;7.10;6.07;;;-1.60;51.60;;;;;;5051454;28;37156;-84
2021/04/14 04:46:07;;;;;;;11.40;6.70;;;-1.50;51.90;;;;;;5040104;28;38906;-84
2021/04/14 04:48:35;;;;;;;15.23;7.00;;;-1.50;51.90;;;;;;5052902;28;39018;-84
2021/04/14 04:51:03;;;;;;;9.10;6.23;;;-1.50;51.70;;;;;;5072524;28;37968;-84
2021/04/14 04:53:30;;;;;;;6.70;5.80;;;-1.50;51.80;;;;;;5050975;28;37233;-84
2021/04/14 04:55:57;;;;;;;7.33;6.50;;;-1.40;52.00;;;;;;5052828;28;39061;-84
2021/04/14 04:58:25;;;;;;;16.13;6.30;;;-1.40;51.90;;;;;;5051563;28;39898;-84
2021/04/14 05:00:54;;;;;;;8.23;6.00;;;-1.30;51.90;;;;;;5052454;28;38812;-84
2021/04/14 05:03:23;;;;;;;7.20;5.60;;;-1.20;51.80;;;;;;5048949;28;37620;-84
2021/04/14 05:05:52;;;;;;;8.40;6.13;;;-1.10;51.60;;;;;;5048866;28;39360;-84
2021/04/14 05:08:22;;;;;;;7.63;5.90;;;-0.90;51.30;;;;;;5049801;28;39881;-83
2021/04/14 05:10:49;;;;;;;13.70;6.10;;;-0.80;51.40;;;;;;5052204;28;38078;-83
2021/04/14 05:13:16;;;;;;;8.13;6.40;;;-0.80;51.10;;;;;;5033745;28;35990;-83
2021/04/14 05:15:43;;;;;;;6.50;4.90;;;-0.70;51.00;;;;;;5037123;28;38528;-83
2021/04/14 05:18:10;;;;;;;6.80;5.53;;;-0.50;50.90;;;;;;5050688;28;39878;-83
2021/04/14 05:20:38;;;;;;;6.47;5.43;;;-0.40;50.50;;;;;;5050255;28;37098;-83
2021/04/14 05:23:06;;;;;;;13.40;5.00;;;-0.10;51.40;;;;;;5052233;28;37758;-83
2021/04/14 05:25:37;;;;;;;7.30;4.90;;;1.30;51.30;;;;;;5050681;28;39692;-83
2021/04/14 05:28:07;;;;;;;7.13;5.47;;;3.10;50.10;;;;;;5047180;28;39886;-82
2021/04/14 05:30:35;;;;;;;6.33;4.90;;;5.10;44.80;;;;;;5050881;28;38923;-82
2021/04/14 05:33:03;;;;;;;9.23;5.13;;;6.80;39.50;;;;;;5047348;28;37528;-82
2021/04/14 05:35:30;;;;;;;12.53;5.47;;;8.40;36.00;;;;;;5061332;28;38184;-83
2021/04/14 05:37:57;;;;;;;8.40;5.33;;;9.90;31.80;;;;;;5048765;28;37340;-83
2021/04/14 05:40:24;;;;;;;10.13;5.87;;;11.20;28.30;;;;;;5045262;28;38184;-83
2021/04/14 05:42:52;;;;;;;8.00;5.60;;;12.40;26.70;;;;;;5051859;28;36290;-85
2021/04/14 05:45:23;;;;;;;10.83;5.50;;;13.30;26.10;;;;;;5046570;28;38609;-84
2021/04/14 05:47:52;;;;;;;9.73;4.83;;;14.10;25.20;;;;;;5048976;28;40013;-85
2021/04/14 05:50:22;;;;;;;7.77;4.90;;;14.90;23.50;;;;;;5051827;28;38356;-85
2021/04/14 05:52:49;;;;;;;7.13;5.30;;;15.30;22.80;;;;;;5032900;28;35989;-87
2021/04/14 05:55:17;;;;;;;6.80;5.20;;;15.90;22.20;;;;;;5052878;28;39656;-87
2021/04/14 05:57:44;;;;;;;7.50;4.93;;;16.40;22.10;;;;;;5050244;28;39610;-87
2021/04/14 06:00:15;;;;;;;7.20;5.00;;;16.80;21.80;;;;;;5053189;28;38573;-88
2021/04/14 06:02:42;;;;;;;8.03;4.77;;;17.20;21.00;;;;;;5035091;28;37181;-88
2021/04/14 06:05:11;;;;;;;7.70;5.33;;;17.60;20.50;;;;;;5053135;28;39667;-88
2021/04/14 06:07:38;;;;;;;6.10;5.60;;;17.90;20.30;;;;;;5049222;28;39623;-90
2021/04/14 06:10:07;;;;;;;7.20;5.47;;;18.30;19.60;;;;;;5027361;28;38440;-88
2021/04/14 06:12:34;;;;;;;11.13;6.47;;;18.00;19.60;;;;;;5052835;28;37376;-89
2021/04/14 06:15:01;;;;;;;6.87;6.00;;;17.50;19.90;;;;;;5056559;28;38412;-89
2021/04/14 06:17:29;;;;;;;7.03;5.83;;;17.30;19.60;;;;;;5053536;28;38849;-88
2021/04/14 06:19:56;;;;;;;11.97;5.67;;;17.30;19.60;;;;;;5053971;28;37762;-88
2021/04/14 06:22:23;;;;;;;7.27;4.83;;;17.50;19.90;;;;;;5051766;28;37378;-89
2021/04/14 06:24:51;;;;;;;10.63;5.37;;;17.80;19.60;;;;;;5053316;28;39536;-88
2021/04/14 06:27:29;;;;;;;7.00;5.60;;;18.20;19.00;;;;;;5056478;28;39690;-88
2021/04/14 06:29:56;;;;;;;8.90;5.40;;;19.00;18.80;;;;;;5061724;28;39410;-86
2021/04/14 06:32:23;;;;;;;10.20;6.30;;;19.80;18.20;;;;;;5059261;28;35617;-88
2021/04/14 06:34:52;;;;;;;6.87;6.17;;;20.80;17.60;;;;;;5062072;28;40398;-88
2021/04/14 06:37:19;;;;;;;21.73;7.17;;;21.60;17.00;;;;;;5063673;28;38904;-88
2021/04/14 06:39:56;;;;;;;13.80;6.13;;;22.50;16.70;;;;;;5071313;28;38829;-88
2021/04/14 06:42:39;;;;;;;7.73;5.83;;;23.20;16.40;;;;;;5039965;28;37282;-88
2021/04/14 06:45:18;;;;;;;8.37;5.50;;;23.60;15.60;;;;;;5052638;28;39857;-86
2021/04/14 06:48:16;;;;;;;7.93;5.43;;;24.60;14.90;;;;;;5058013;28;39130;-89
2021/04/14 06:50:49;;;;;;;10.40;5.67;;;25.40;15.10;;;;;;5029347;28;37223;-92
2021/04/14 06:53:31;;;;;;;7.93;5.63;;;26.00;14.50;;;;;;5053320;28;37312;-91
2021/04/14 06:56:01;;;;;;;9.03;6.57;;;26.50;13.90;;;;;;5052663;28;38789;-91
2021/04/14 06:58:37;;;;;;;11.10;6.53;;;27.00;14.00;;;;;;5055572;28;39648;-92
2021/04/14 07:01:07;;;;;;;9.50;6.17;;;27.70;13.40;;;;;;5050511;28;38008;-88
2021/04/14 07:03:46;;;;;;;7.30;5.23;;;28.10;12.70;;;;;;5054533;28;36919;-91
2021/04/14 07:06:19;;;;;;;8.53;5.13;;;28.30;12.30;;;;;;5052352;28;39811;-88
2021/04/14 07:08:59;;;;;;;10.23;6.27;;;28.50;12.10;;;;;;5054748;28;39037;-88
2021/04/14 07:11:29;;;;;;;7.17;5.80;;;28.80;12.10;;;;;;5055226;28;37173;-88
2021/04/14 07:13:57;;;;;;;10.30;6.40;;;28.90;12.00;;;;;;5040826;28;36346;-87
2021/04/14 07:16:46;;;;;;;9.00;6.90;;;29.30;11.80;;;;;;5055870;28;39856;-89
2021/04/14 07:19:25;;;;;;;13.33;6.50;;;29.80;11.50;;;;;;5036273;28;37936;-92
2021/04/14 07:21:58;;;;;;;6.80;5.60;;;29.70;11.30;;;;;;5054732;28;37441;-89
2021/04/14 07:24:32;;;;;;;9.93;6.73;;;29.80;10.80;;;;;;5054341;28;37039;-91
2021/04/14 07:27:04;;;;;;;5.90;5.30;;;30.10;10.70;;;;;;5037478;28;38655;-91
2021/04/14 07:29:36;;;;;;;7.60;5.43;;;30.30;10.30;;;;;;5070881;28;39098;-91
2021/04/14 07:39:11;;;;;;;6.20;5.60;;;30.90;9.70;;;;;;4998296;28;39035;-94
2021/04/14 07:42:21;;;;;;;7.07;6.47;;;30.50;9.80;;;;;;5056737;28;38311;-95
2021/04/14 07:45:17;;;;;;;6.97;5.67;;;30.30;9.90;;;;;;5042383;28;36725;-96
2021/04/14 07:48:22;;;;;;;8.40;6.57;;;30.70;9.70;;;;;;5056579;28;36783;-96
2021/04/14 07:51:16;;;;;;;5.93;4.90;;;31.40;9.30;;;;;;5036782;28;38354;-96
2021/04/14 07:54:07;;;;;;;5.57;5.00;;;31.20;9.10;;;;;;4984675;28;39083;-96
2021/04/14 07:57:00;;;;;;;5.13;4.63;;;31.80;9.20;;;;;;5040267;28;38691;-96
2021/04/14 08:00:15;;;;;;;5.33;4.73;;;32.00;9.00;;;;;;5020750;28;36350;-96
2021/04/14 08:02:43;;;;;;;4.70;4.30;;;31.70;8.60;;;;;;5050806;28;38098;-96
2021/04/14 08:05:22;;;;;;;5.27;4.87;;;31.90;8.60;;;;;;5041924;28;37517;-95
2021/04/14 08:07:54;;;;;;;5.80;5.30;;;31.80;8.30;;;;;;5040321;28;37632;-95
2021/04/14 08:10:31;;;;;;;5.77;5.00;;;31.80;8.70;;;;;;5054771;28;36086;-92
2021/04/14 08:13:02;;;;;;;5.37;4.57;;;32.20;8.80;;;;;;5059057;28;38475;-96
2021/04/14 08:15:32;;;;;;;6.70;5.17;;;32.40;8.20;;;;;;5042508;28;37609;-94
2021/04/14 08:18:21;;;;;;;5.27;4.77;;;33.10;8.00;;;;;;5057827;28;36402;-95
2021/04/14 08:21:05;;;;;;;5.80;5.30;;;31.20;8.10;;;;;;5041561;28;38959;-96
2021/04/14 08:23:32;;;;;;;4.80;4.40;;;31.20;8.20;;;;;;5060258;28;40284;-95
2021/04/14 08:30:01;;;;;;;24.67;5.43;;;32.40;8.50;;;;;;5020874;28;38769;-96
2021/04/14 08:32:30;;;;;;;5.80;4.90;;;33.60;8.10;;;;;;5003397;28;37862;-96
2021/04/14 08:35:02;;;;;;;7.00;4.60;;;34.30;7.60;;;;;;5016429;28;39265;-96
2021/04/14 08:37:33;;;;;;;5.00;4.40;;;34.90;7.40;;;;;;5015138;28;40200;-95
2021/04/14 08:40:05;;;;;;;5.77;4.37;;;35.20;7.10;;;;;;5015063;28;38639;-96
2021/04/14 08:42:36;;;;;;;7.50;4.07;;;34.60;6.80;;;;;;5016676;28;35928;-96
2021/04/14 08:45:19;;;;;;;16.17;5.50;;;34.20;7.20;;;;;;5017664;28;39384;-95
2021/04/14 08:47:52;;;;;;;3.83;3.43;;;34.20;7.40;;;;;;5021523;28;37854;-96
2021/04/14 08:50:27;;;;;;;4.53;2.97;;;33.70;6.80;;;;;;5015901;28;37682;-96
2021/04/14 08:53:05;;;;;;;4.40;2.90;;;32.50;6.90;;;;;;5012893;28;38294;-96
2021/04/14 08:55:32;;;;;;;4.93;3.20;;;32.30;7.20;;;;;;5026791;28;38299;-96
2021/04/14 08:58:01;;;;;;;2.87;2.47;;;32.80;7.30;;;;;;5036475;28;38485;-95
2021/04/14 09:00:28;;;;;;;3.20;2.90;;;33.40;6.70;;;;;;5015950;28;37581;-95
2021/04/14 09:03:00;;;;;;;2.90;2.70;;;33.00;6.50;;;;;;5016034;28;35912;-95
2021/04/14 09:05:29;;;;;;;3.10;2.80;;;31.80;7.00;;;;;;5019254;28;39743;-95
2021/04/14 09:07:58;;;;;;;3.10;2.50;;;30.80;7.30;;;;;;5039299;28;37963;-95
2021/04/14 09:10:37;;;;;;;5.07;2.57;;;30.20;7.60;;;;;;5056900;28;36776;-95
2021/04/14 09:13:07;;;;;;;2.90;2.00;;;30.80;7.90;;;;;;5057498;28;35585;-96
2021/04/14 09:15:56;;;;;;;6.60;2.80;;;31.80;7.40;;;;;;5060245;28;38250;-96
2021/04/14 09:18:34;;;;;;;5.43;2.50;;;32.90;7.40;;;;;;5060450;28;39057;-96
2021/04/14 09:21:10;;;;;;;4.20;2.60;;;34.00;6.50;;;;;;5055138;28;38279;-96
2021/04/14 09:23:52;;;;;;;2.90;2.53;;;33.70;5.90;;;;;;5036130;28;37250;-96
2021/04/14 09:26:31;;;;;;;4.10;2.73;;;34.30;6.50;;;;;;5041696;28;38512;-96
2021/04/14 09:29:00;;;;;;;6.43;2.50;;;35.20;6.50;;;;;;5043209;28;39636;-96
2021/04/14 09:31:42;;;;;;;3.10;2.20;;;35.50;5.90;;;;;;5024560;28;37001;-94
2021/04/14 09:34:17;;;;;;;2.87;2.00;;;34.40;6.00;;;;;;5020873;28;36387;-95
2021/04/14 09:36:48;;;;;;;4.50;1.90;;;33.90;5.50;;;;;;5032027;28;38627;-95
2021/04/14 09:39:31;;;;;;;3.70;1.90;;;30.10;5.20;;;;;;5030693;28;37448;-95
2021/04/14 09:42:00;;;;;;;2.77;2.20;;;26.40;6.60;;;;;;5044395;28;20548;-94
2021/04/14 09:44:39;;;;;;;5.83;3.90;;;23.30;7.70;;;;;;5046433;28;37747;-95
2021/04/14 09:47:36;;;;;;;3.77;3.10;;;20.70;8.60;;;;;;5039088;28;38857;-95
2021/04/14 09:50:38;;;;;;;3.17;1.97;;;20.30;10.50;;;;;;4970479;28;39053;-95
2021/04/14 09:53:09;;;;;;;4.77;2.70;;;22.00;10.20;;;;;;5043236;28;37086;-95
2021/04/14 09:55:45;;;;;;;3.37;2.00;;;23.40;9.80;;;;;;5061102;28;38527;-96
2021/04/14 09:59:02;;;;;;;21.97;4.90;;;23.50;9.20;;;;;;5049412;28;39063;-95
2021/04/14 10:01:34;;;;;;;3.93;2.10;;;22.60;9.40;;;;;;5024658;28;37330;-94
2021/04/14 10:04:56;;;;;;;5.20;2.00;;;20.90;9.90;;;;;;5047257;28;37291;-94
2021/04/14 10:08:01;;;;;;;4.33;2.13;;;18.70;9.60;;;;;;5038839;28;36692;-94
2021/04/14 10:14:52;;;;;;;3.27;1.87;;;16.20;11.50;;;;;;4917102;29;39744;-95
2021/04/14 10:24:40;;;;;;;2.87;1.90;;;14.10;14.40;;;;;;4976929;28;40190;-93
2021/04/14 10:27:10;;;;;;;2.73;2.33;;;13.30;15.40;;;;;;5060078;28;37650;-93
2021/04/14 10:29:42;;;;;;;3.17;2.40;;;12.70;15.90;;;;;;5060553;28;36906;-96
2021/04/14 10:32:16;;;;;;;4.00;2.73;;;12.20;16.90;;;;;;5045240;28;36487;-94
2021/04/14 10:34:46;;;;;;;7.73;2.73;;;12.20;17.80;;;;;;5062846;28;38712;-93
2021/04/14 10:37:17;;;;;;;5.50;2.10;;;12.10;18.40;;;;;;5055424;28;37937;-93
2021/04/14 10:39:45;;;;;;;4.13;1.80;;;12.30;18.30;;;;;;5061922;28;39335;-94
2021/04/14 10:42:17;;;;;;;2.77;1.73;;;12.50;18.00;;;;;;5078551;28;36956;-96
2021/04/14 10:44:45;;;;;;;2.93;1.50;;;12.70;17.20;;;;;;5077032;28;39146;-96
2021/04/14 10:47:18;;;;;;;2.37;1.80;;;12.70;16.70;;;;;;5045370;28;37935;-95
2021/04/14 10:49:47;;;;;;;6.17;2.10;;;12.70;16.90;;;;;;5043717;28;37776;-95
2021/04/14 10:52:22;;;;;;;3.60;2.00;;;12.60;17.80;;;;;;5059784;28;36053;-94
2021/04/14 10:54:53;;;;;;;5.00;1.90;;;12.60;17.70;;;;;;5041964;28;39141;-94
2021/04/14 10:57:27;;;;;;;5.87;2.20;;;12.40;18.20;;;;;;5042254;28;37752;-95
2021/04/14 11:00:02;;;;;;;12.07;3.10;;;12.30;17.90;;;;;;5060826;28;36527;-93
2021/04/14 11:02:30;;;;;;;5.67;2.30;;;12.30;18.50;;;;;;5052622;28;35153;-94
2021/04/14 11:05:01;;;;;;;3.93;2.13;;;12.20;18.80;;;;;;5059399;28;39110;-95
2021/04/14 11:07:30;;;;;;;5.40;2.33;;;12.00;19.80;;;;;;5060713;28;39090;-96
2021/04/14 11:09:59;;;;;;;2.93;2.20;;;12.00;20.20;;;;;;5077393;28;37999;-94
2021/04/14 11:12:29;;;;;;;4.90;2.13;;;12.00;19.80;;;;;;5060644;28;36761;-96
2021/04/14 11:14:58;;;;;;;5.47;3.43;;;12.00;19.40;;;;;;5061981;28;39063;-96
2021/04/14 11:17:29;;;;;;;10.10;5.10;;;11.90;19.60;;;;;;5077919;28;38654;-94
2021/04/14 11:20:05;;;;;;;8.43;3.83;;;11.90;19.40;;;;;;5061923;28;37828;-94
2021/04/14 11:22:42;;;;;;;3.67;2.10;;;11.80;18.90;;;;;;5062967;28;37016;-95
2021/04/14 11:25:22;;;;;;;2.70;1.93;;;12.00;19.00;;;;;;5060890;28;38308;-95
2021/04/14 11:28:01;;;;;;;10.70;2.73;;;12.10;19.00;;;;;;5074435;28;40377;-94
2021/04/14 11:30:30;;;;;;;3.63;1.60;;;12.20;18.40;;;;;;5061385;28;37747;-95
2021/04/14 11:33:01;;;;;;;2.10;1.90;;;12.30;18.20;;;;;;5078518;28;36934;-95
2021/04/14 11:35:45;;;;;;;3.63;1.80;;;12.50;18.00;;;;;;5079009;28;39632;-94
2021/04/14 11:38:28;;;;;;;5.23;2.20;;;12.60;17.60;;;;;;5061764;28;40463;-94
2021/04/14 11:40:57;;;;;;;3.87;2.13;;;13.00;18.20;;;;;;5061285;28;39347;-95
2021/04/14 11:43:35;;;;;;;6.03;2.20;;;13.20;17.80;;;;;;5061632;28;37271;-94
2021/04/14 11:46:05;;;;;;;5.10;2.00;;;13.40;17.50;;;;;;5078131;28;38662;-93
2021/04/14 11:48:40;;;;;;;4.53;2.60;;;13.50;17.80;;;;;;5061989;28;39079;-93
2021/04/14 11:51:25;;;;;;;4.43;2.30;;;13.40;17.80;;;;;;5095704;28;36864;-93
2021/04/14 11:53:58;;;;;;;3.87;2.07;;;13.70;18.20;;;;;;5079078;28;36966;-95
2021/04/14 11:56:34;;;;;;;2.53;1.80;;;13.60;17.30;;;;;;5078833;28;38390;-95
2021/04/14 11:59:04;;;;;;;9.60;2.53;;;13.50;17.80;;;;;;5035449;28;39099;-92
2021/04/14 12:01:34;;;;;;;5.30;2.17;;;13.40;17.80;;;;;;5001872;28;37713;-93
2021/04/14 12:04:12;;;;;;;2.03;1.77;;;13.50;18.00;;;;;;5017231;28;37549;-94
2021/04/14 12:06:41;;;;;;;7.40;2.00;;;13.50;17.50;;;;;;5000050;28;39655;-93
2021/04/14 12:09:08;;;;;;;2.63;2.00;;;13.60;17.60;;;;;;4989068;28;38816;-95
2021/04/14 12:11:38;;;;;;;2.83;1.60;;;13.80;17.40;;;;;;4987198;28;36851;-95
2021/04/14 12:14:05;;;;;;;3.70;2.13;;;14.00;17.50;;;;;;4988784;28;36353;-95
2021/04/14 12:16:37;;;;;;;3.00;2.00;;;14.10;17.00;;;;;;4988587;28;37894;-95
2021/04/14 12:19:06;;;;;;;1.80;1.70;;;13.50;17.10;;;;;;4994527;28;37750;-95
2021/04/14 12:21:33;;;;;;;2.93;1.97;;;13.20;17.40;;;;;;4979095;28;37151;-95
2021/04/14 12:24:02;;;;;;;7.63;4.60;;;13.10;17.90;;;;;;4987053;28;37528;-95
2021/04/14 12:26:30;;;;;;;4.80;2.10;;;13.40;18.30;;;;;;4983861;28;38604;-95
2021/04/14 12:28:58;;;;;;;2.80;2.10;;;13.80;17.90;;;;;;4995111;28;38119;-96
2021/04/14 12:31:26;;;;;;;2.53;2.00;;;13.80;16.90;;;;;;4984652;28;40371;-96
2021/04/14 12:33:53;;;;;;;2.30;2.10;;;13.40;17.40;;;;;;5028401;28;36081;-94
2021/04/14 12:36:21;;;;;;;2.60;2.00;;;13.10;17.70;;;;;;5026418;28;41734;-95
2021/04/14 12:38:49;;;;;;;3.63;2.00;;;13.10;18.40;;;;;;5061878;28;38651;-96
2021/04/14 12:41:17;;;;;;;1.90;1.80;;;12.80;18.30;;;;;;5060894;28;38177;-95
2021/04/14 12:43:45;;;;;;;3.03;2.30;;;12.70;18.50;;;;;;5055029;28;37043;-95
2021/04/14 12:46:12;;;;;;;4.27;2.00;;;12.60;18.30;;;;;;5074213;28;39204;-95
2021/04/14 12:48:43;;;;;;;3.13;2.10;;;12.90;18.30;;;;;;5088722;28;37724;-94
2021/04/14 12:51:16;;;;;;;5.20;3.60;;;13.10;18.10;;;;;;5085009;28;38450;-94
2021/04/14 12:53:47;;;;;;;3.77;2.30;;;13.00;18.70;;;;;;5083228;28;36223;-94
2021/04/14 12:56:30;;;;;;;6.60;2.23;;;13.30;18.40;;;;;;5064793;28;38304;-95
2021/04/14 12:59:04;;;;;;;3.63;1.87;;;13.50;17.10;;;;;;5060049;28;37935;-95
2021/04/14 13:01:33;;;;;;;2.20;2.00;;;14.00;17.00;;;;;;5082339;28;37057;-95
2021/04/14 13:04:06;;;;;;;3.33;2.50;;;14.40;16.20;;;;;;5064161;28;36072;-94
2021/04/14 13:06:39;;;;;;;2.80;1.73;;;14.40;15.70;;;;;;5076918;28;39543;-94
2021/04/14 13:09:08;;;;;;;3.13;2.50;;;14.30;15.70;;;;;;5072503;28;39332;-94
2021/04/14 13:11:41;;;;;;;3.77;1.83;;;14.30;15.80;;;;;;5092483;28;37620;-94
2021/04/14 13:14:09;;;;;;;2.67;1.83;;;14.20;16.20;;;;;;5074251;28;37126;-94
2021/04/14 13:16:46;;;;;;;2.97;2.27;;;14.30;15.80;;;;;;5056123;28;38774;-94
2021/04/14 13:19:14;;;;;;;4.17;2.13;;;14.40;16.10;;;;;;5072562;28;39398;-95
2021/04/14 13:21:46;;;;;;;4.60;2.03;;;14.50;16.10;;;;;;5052231;28;39634;-95
2021/04/14 13:24:23;;;;;;;2.53;1.87;;;14.70;16.50;;;;;;5058294;28;37840;-96
2021/04/14 13:26:58;;;;;;;2.63;2.03;;;14.60;15.70;;;;;;5058163;28;38610;-95
2021/04/14 13:29:31;;;;;;;2.23;1.93;;;14.80;16.50;;;;;;5073241;28;37658;-94
2021/04/14 13:32:05;;;;;;;3.20;2.40;;;15.10;16.00;;;;;;5077780;28;38111;-96
2021/04/14 13:34:50;;;;;;;2.83;2.03;;;15.00;15.40;;;;;;5073151;28;36378;-92